Time;durP1;ratioP1;P1;durP2;ratioP2;P2;SDS_P1;SDS_P2;PMS_P1;PMS_P2;Temp;Humidity;BMP_temperature;BMP_pressure;BME280_temperature;BME280_humidity;BME280_pressure;Samples;Min_cycle;Max_cycle;Signal;HPM_P1;HPM_P2
2022/12/06 00:01:45;;;;;;;2.60;1.55;;;;;;;;;;5038242;28;20029;-80
2022/12/06 00:04:13;;;;;;;5.00;2.65;;;;;;;;;;5043254;28;20025;-81
2022/12/06 00:06:46;;;;;;;7.50;3.38;;;;;;;;;;5046877;28;20037;-81
2022/12/06 00:09:21;;;;;;;10.70;3.47;;;;;;;;;;5038788;28;20029;-82
2022/12/06 00:11:47;;;;;;;6.82;2.28;;;;;;;;;;5040669;28;20028;-82
2022/12/06 00:14:13;;;;;;;3.63;3.15;;;;;;;;;;5040634;28;20389;-83
2022/12/06 00:16:38;;;;;;;5.55;1.85;;;;;;;;;;5048475;28;20485;-83
2022/12/06 00:19:04;;;;;;;10.35;2.05;;;;;;;;;;5052240;28;20492;-82
2022/12/06 00:21:32;;;;;;;2.05;1.15;;;;;;;;;;5049903;28;20036;-83
2022/12/06 00:24:01;;;;;;;1.48;1.23;;;;;;;;;;5045325;28;20477;-83
2022/12/06 00:26:27;;;;;;;0.80;0.68;;;;;;;;;;5044599;28;20393;-83
2022/12/06 00:28:55;;;;;;;4.63;1.50;;;;;;;;;;5050470;28;20021;-82
2022/12/06 00:31:22;;;;;;;1.35;1.17;;;;;;;;;;5044404;28;20076;-81
2022/12/06 00:33:48;;;;;;;1.73;1.17;;;;;;;;;;5046522;28;20048;-83
2022/12/06 00:36:15;;;;;;;1.13;1.02;;;;;;;;;;5047649;28;20465;-82
2022/12/06 00:38:41;;;;;;;0.68;0.65;;;;;;;;;;5049326;28;20033;-81
2022/12/06 00:41:15;;;;;;;1.88;1.23;;;;;;;;;;5042687;28;20032;-82
2022/12/06 00:43:41;;;;;;;1.45;0.88;;;;;;;;;;5048891;28;20079;-82
2022/12/06 00:46:09;;;;;;;3.45;1.00;;;;;;;;;;5044909;28;20024;-81
2022/12/06 00:48:35;;;;;;;1.25;0.90;;;;;;;;;;5043517;28;20528;-82
2022/12/06 00:51:01;;;;;;;1.27;0.93;;;;;;;;;;5041761;28;20054;-83
2022/12/06 00:53:26;;;;;;;3.15;1.98;;;;;;;;;;5041153;28;20036;-82
2022/12/06 00:55:53;;;;;;;1.52;1.10;;;;;;;;;;5043701;28;20044;-83
2022/12/06 00:58:19;;;;;;;1.40;1.00;;;;;;;;;;5039562;28;20032;-83
2022/12/06 01:00:44;;;;;;;1.23;0.85;;;;;;;;;;5043053;28;20112;-82
2022/12/06 01:03:10;;;;;;;1.63;1.13;;;;;;;;;;5046840;28;20784;-83
2022/12/06 01:05:44;;;;;;;4.75;1.05;;;;;;;;;;5045845;28;20035;-84
2022/12/06 01:08:10;;;;;;;2.13;1.48;;;;;;;;;;5044467;28;20036;-84
2022/12/06 01:10:37;;;;;;;1.90;1.13;;;;;;;;;;5039699;28;20029;-84
2022/12/06 01:13:03;;;;;;;2.33;1.92;;;;;;;;;;5043013;28;20061;-83
2022/12/06 01:15:29;;;;;;;1.90;1.27;;;;;;;;;;5041822;28;20084;-82
2022/12/06 01:17:54;;;;;;;6.35;1.90;;;;;;;;;;5046003;28;20022;-83
2022/12/06 01:20:19;;;;;;;2.42;0.95;;;;;;;;;;5043794;28;20037;-82
2022/12/06 01:22:45;;;;;;;3.05;1.35;;;;;;;;;;5046301;28;20083;-82
2022/12/06 01:25:10;;;;;;;1.40;1.15;;;;;;;;;;5040740;28;20116;-81
2022/12/06 01:27:36;;;;;;;0.80;0.80;;;;;;;;;;5045806;28;20040;-82
2022/12/06 01:30:02;;;;;;;1.98;1.77;;;;;;;;;;5042370;28;20111;-84
2022/12/06 01:32:28;;;;;;;1.83;1.52;;;;;;;;;;5045140;28;20029;-82
2022/12/06 01:34:54;;;;;;;1.00;0.90;;;;;;;;;;5043249;28;20044;-82
2022/12/06 01:37:19;;;;;;;2.15;1.40;;;;;;;;;;5040753;28;20400;-83
2022/12/06 01:39:45;;;;;;;1.45;1.25;;;;;;;;;;5038070;28;20548;-82
2022/12/06 01:42:11;;;;;;;1.20;0.85;;;;;;;;;;5040289;28;20021;-83
2022/12/06 01:44:45;;;;;;;2.70;1.60;;;;;;;;;;5040516;28;20029;-81
2022/12/06 01:47:22;;;;;;;1.13;1.08;;;;;;;;;;5044796;28;20025;-82
2022/12/06 01:50:16;;;;;;;1.23;1.13;;;;;;;;;;5045495;28;20025;-83
2022/12/06 01:53:07;;;;;;;1.73;1.45;;;;;;;;;;5056661;28;20306;-82
2022/12/06 01:55:37;;;;;;;0.63;0.60;;;;;;;;;;5040631;28;20104;-83
2022/12/06 01:58:17;;;;;;;1.23;1.02;;;;;;;;;;5039107;28;20029;-82
2022/12/06 02:00:43;;;;;;;0.82;0.68;;;;;;;;;;5034428;28;20029;-83
2022/12/06 02:03:16;;;;;;;1.45;1.20;;;;;;;;;;5043627;28;20105;-82
2022/12/06 02:05:42;;;;;;;1.67;1.00;;;;;;;;;;5034342;28;20048;-82
2022/12/06 02:08:08;;;;;;;0.85;0.77;;;;;;;;;;5037264;28;20017;-82
2022/12/06 02:10:35;;;;;;;1.85;1.17;;;;;;;;;;5042541;28;20014;-82
2022/12/06 02:13:01;;;;;;;3.03;1.42;;;;;;;;;;5037552;28;20520;-83
2022/12/06 02:15:47;;;;;;;3.08;1.80;;;;;;;;;;5037337;28;20033;-82
2022/12/06 02:18:25;;;;;;;2.03;1.10;;;;;;;;;;5044751;28;20468;-83
2022/12/06 02:21:15;;;;;;;3.28;1.55;;;;;;;;;;5041268;28;20030;-83
2022/12/06 02:24:15;;;;;;;1.92;1.40;;;;;;;;;;5037275;28;20102;-82
2022/12/06 02:26:48;;;;;;;1.45;1.20;;;;;;;;;;5037648;28;20464;-82
2022/12/06 02:29:32;;;;;;;1.45;1.35;;;;;;;;;;5044725;28;20033;-81
2022/12/06 02:32:07;;;;;;;2.50;1.85;;;;;;;;;;5043857;28;20025;-81
2022/12/06 02:34:43;;;;;;;3.60;1.83;;;;;;;;;;5046426;28;20029;-81
2022/12/06 02:37:46;;;;;;;1.88;1.40;;;;;;;;;;5035977;28;20029;-81
2022/12/06 02:40:20;;;;;;;6.07;1.92;;;;;;;;;;5036878;28;20117;-83
2022/12/06 02:43:14;;;;;;;4.65;3.22;;;;;;;;;;5031658;28;20503;-81
2022/12/06 02:45:45;;;;;;;2.95;2.17;;;;;;;;;;5045934;28;20396;-81
2022/12/06 02:48:13;;;;;;;3.08;2.08;;;;;;;;;;5040265;28;20025;-81
2022/12/06 02:50:44;;;;;;;5.28;2.85;;;;;;;;;;5036685;28;20018;-81
2022/12/06 02:53:15;;;;;;;5.82;3.22;;;;;;;;;;5043042;28;20082;-84
2022/12/06 02:55:42;;;;;;;3.88;2.30;;;;;;;;;;5040118;28;20674;-81
2022/12/06 02:58:08;;;;;;;4.10;1.98;;;;;;;;;;5045089;28;20049;-81
2022/12/06 03:00:36;;;;;;;4.43;1.85;;;;;;;;;;5032094;28;20025;-84
2022/12/06 03:03:39;;;;;;;4.63;2.75;;;;;;;;;;5039620;28;20041;-84
2022/12/06 03:06:25;;;;;;;7.30;2.00;;;;;;;;;;5040033;28;20100;-83
2022/12/06 03:09:32;;;;;;;5.07;2.70;;;;;;;;;;5040515;28;20029;-83
2022/12/06 03:12:10;;;;;;;1.42;1.30;;;;;;;;;;5036977;28;20034;-82
2022/12/06 03:14:58;;;;;;;2.95;1.35;;;;;;;;;;5071823;28;20116;-81
2022/12/06 03:17:34;;;;;;;2.45;1.75;;;;;;;;;;5043713;28;20033;-80
2022/12/06 03:20:06;;;;;;;3.45;1.92;;;;;;;;;;5041039;28;20024;-81
2022/12/06 03:22:43;;;;;;;3.22;2.10;;;;;;;;;;5041826;28;20037;-81
2022/12/06 03:25:09;;;;;;;1.92;1.33;;;;;;;;;;5043767;28;20538;-82
2022/12/06 03:27:36;;;;;;;1.98;1.83;;;;;;;;;;5036243;28;20025;-81
2022/12/06 03:30:06;;;;;;;2.38;1.98;;;;;;;;;;5042736;28;20038;-82
2022/12/06 03:32:33;;;;;;;2.95;1.23;;;;;;;;;;5040334;28;20170;-81
2022/12/06 03:35:04;;;;;;;3.00;1.50;;;;;;;;;;5035954;28;20074;-80
2022/12/06 03:37:31;;;;;;;1.70;1.05;;;;;;;;;;5039566;28;20032;-81
2022/12/06 03:40:27;;;;;;;3.80;2.70;;;;;;;;;;5039412;28;20124;-81
2022/12/06 03:42:53;;;;;;;3.38;2.13;;;;;;;;;;5035170;28;20048;-81
2022/12/06 03:45:22;;;;;;;3.55;1.63;;;;;;;;;;5040635;28;20033;-82
2022/12/06 03:47:53;;;;;;;3.35;1.90;;;;;;;;;;5041545;28;20047;-81
2022/12/06 03:50:24;;;;;;;2.55;1.70;;;;;;;;;;5036158;28;20032;-81
2022/12/06 03:52:51;;;;;;;7.15;2.33;;;;;;;;;;5040025;28;20029;-82
2022/12/06 03:55:17;;;;;;;6.70;2.47;;;;;;;;;;5039190;28;20482;-82
2022/12/06 03:57:43;;;;;;;5.63;2.88;;;;;;;;;;5037361;28;20044;-83
2022/12/06 04:00:10;;;;;;;5.28;3.13;;;;;;;;;;5037046;28;20036;-83
2022/12/06 04:02:35;;;;;;;2.80;2.17;;;;;;;;;;5046245;28;20061;-81
2022/12/06 04:05:00;;;;;;;4.93;3.50;;;;;;;;;;5043028;28;20028;-81
2022/12/06 04:07:26;;;;;;;4.60;2.67;;;;;;;;;;5035452;28;20036;-82
2022/12/06 04:09:51;;;;;;;7.13;4.03;;;;;;;;;;5040791;28;20045;-82
2022/12/06 04:15:06;;;;;;;3.97;2.50;;;;;;;;;;5042932;28;20110;-81
2022/12/06 04:20:16;;;;;;;6.00;3.45;;;;;;;;;;5041390;28;20032;-81
2022/12/06 04:25:25;;;;;;;4.05;2.42;;;;;;;;;;5047509;28;20106;-82
2022/12/06 04:38:47;;;;;;;6.35;3.00;;;;;;;;;;5042753;28;20076;-84
2022/12/06 04:43:40;;;;;;;3.67;2.08;;;;;;;;;;5038933;28;20049;-84
2022/12/06 04:44:03;;;;;;;3.72;2.17;;;;;;;;;;5042716;28;20359;-83
2022/12/06 04:46:28;;;;;;;2.45;2.10;;;;;;;;;;5040465;28;20022;-81
2022/12/06 04:48:54;;;;;;;3.78;1.70;;;;;;;;;;5045504;28;20052;-82
2022/12/06 04:51:20;;;;;;;5.00;2.00;;;;;;;;;;5037214;28;20022;-81
2022/12/06 04:53:46;;;;;;;4.18;3.08;;;;;;;;;;5046072;28;20112;-81
2022/12/06 04:56:11;;;;;;;7.70;4.30;;;;;;;;;;5046988;28;20056;-81
2022/12/06 04:58:36;;;;;;;3.97;3.30;;;;;;;;;;5046496;28;20075;-81
2022/12/06 05:01:02;;;;;;;6.18;3.70;;;;;;;;;;5045743;28;20145;-81
2022/12/06 05:03:27;;;;;;;6.97;3.72;;;;;;;;;;5043892;28;20030;-81
2022/12/06 05:05:53;;;;;;;5.47;3.55;;;;;;;;;;5037687;28;20052;-83
2022/12/06 05:08:18;;;;;;;9.02;4.22;;;;;;;;;;5040052;28;20054;-82
2022/12/06 05:10:50;;;;;;;4.55;3.33;;;;;;;;;;5043028;28;20025;-83
2022/12/06 05:13:17;;;;;;;4.38;3.03;;;;;;;;;;5039015;28;20388;-82
2022/12/06 05:15:57;;;;;;;6.28;3.08;;;;;;;;;;5042009;28;20033;-82
2022/12/06 05:18:23;;;;;;;4.97;2.40;;;;;;;;;;5032249;28;20378;-82
2022/12/06 05:20:49;;;;;;;2.67;2.33;;;;;;;;;;5037737;28;20365;-81
2022/12/06 05:23:15;;;;;;;9.07;3.55;;;;;;;;;;5038327;28;20021;-83
2022/12/06 05:25:40;;;;;;;7.93;4.32;;;;;;;;;;5037033;28;20048;-82
2022/12/06 05:28:07;;;;;;;4.40;2.83;;;;;;;;;;5037948;28;20038;-82
2022/12/06 05:30:33;;;;;;;10.07;5.00;;;;;;;;;;5035979;28;20037;-83
2022/12/06 05:32:59;;;;;;;8.10;3.63;;;;;;;;;;5036790;28;20025;-83
2022/12/06 05:35:24;;;;;;;6.15;4.15;;;;;;;;;;5033678;28;20017;-82
2022/12/06 05:37:49;;;;;;;8.18;4.30;;;;;;;;;;5033761;28;20028;-83
2022/12/06 05:40:15;;;;;;;15.85;5.15;;;;;;;;;;5042696;28;20036;-83
2022/12/06 05:42:41;;;;;;;5.18;4.63;;;;;;;;;;5039075;28;20033;-81
2022/12/06 05:45:08;;;;;;;6.40;4.95;;;;;;;;;;5040953;28;20095;-83
2022/12/06 05:47:33;;;;;;;5.05;3.17;;;;;;;;;;5036589;28;20492;-80
2022/12/06 05:49:59;;;;;;;5.65;3.85;;;;;;;;;;5035531;28;20040;-80
2022/12/06 05:52:24;;;;;;;5.50;3.40;;;;;;;;;;5045116;28;20468;-81
2022/12/06 05:54:50;;;;;;;8.90;4.15;;;;;;;;;;5043860;28;20029;-79
2022/12/06 05:57:15;;;;;;;7.75;3.85;;;;;;;;;;5040684;28;20036;-81
2022/12/06 05:59:41;;;;;;;6.30;3.15;;;;;;;;;;5033269;28;20363;-81
2022/12/06 06:02:06;;;;;;;5.90;3.90;;;;;;;;;;5043108;28;20043;-83
2022/12/06 06:04:32;;;;;;;5.00;2.90;;;;;;;;;;5042820;28;20086;-82
2022/12/06 06:06:57;;;;;;;4.53;3.03;;;;;;;;;;5043966;28;20029;-81
2022/12/06 06:09:25;;;;;;;3.38;2.67;;;;;;;;;;5041940;28;20120;-80
2022/12/06 06:11:51;;;;;;;2.58;2.35;;;;;;;;;;5042248;28;20037;-80
2022/12/06 06:14:16;;;;;;;4.82;2.80;;;;;;;;;;5040044;28;20032;-81
2022/12/06 06:16:42;;;;;;;3.47;1.95;;;;;;;;;;5041272;28;20397;-81
2022/12/06 06:20:01;;;;;;;;;;;;;;;;;;;;;
2022/12/06 06:22:27;;;;;;;3.05;2.05;;;;;;;;;;5011412;28;20037;-80
2022/12/06 06:24:52;;;;;;;3.90;2.17;;;;;;;;;;5038053;28;20117;-82
2022/12/06 06:27:18;;;;;;;3.58;2.28;;;;;;;;;;5039465;28;20053;-80
2022/12/06 06:29:44;;;;;;;3.72;2.47;;;;;;;;;;5037236;28;20056;-81
2022/12/06 06:32:09;;;;;;;2.33;2.00;;;;;;;;;;5039232;28;20425;-82
2022/12/06 06:34:35;;;;;;;2.42;2.17;;;;;;;;;;5043452;28;20151;-83
2022/12/06 06:37:00;;;;;;;3.47;2.00;;;;;;;;;;5038773;28;20032;-82
2022/12/06 06:39:26;;;;;;;5.22;2.63;;;;;;;;;;5044076;28;20461;-80
2022/12/06 06:41:51;;;;;;;4.90;3.20;;;;;;;;;;5039387;28;20029;-81
2022/12/06 06:44:16;;;;;;;3.50;1.73;;;;;;;;;;5037280;28;20392;-83
2022/12/06 06:46:42;;;;;;;5.47;2.22;;;;;;;;;;5042240;28;20112;-80
2022/12/06 06:49:07;;;;;;;4.60;2.70;;;;;;;;;;5042557;28;20030;-80
2022/12/06 06:51:33;;;;;;;4.03;2.15;;;;;;;;;;5034247;28;20030;-83
2022/12/06 06:53:58;;;;;;;11.52;2.47;;;;;;;;;;5043307;28;20110;-83
2022/12/06 06:56:24;;;;;;;2.92;2.13;;;;;;;;;;5035696;28;20029;-83
2022/12/06 06:58:50;;;;;;;4.70;2.55;;;;;;;;;;5037818;28;20477;-81
2022/12/06 07:01:18;;;;;;;3.05;1.70;;;;;;;;;;5039340;28;20029;-81
2022/12/06 07:03:43;;;;;;;3.58;2.75;;;;;;;;;;5038337;28;20033;-81
2022/12/06 07:06:09;;;;;;;3.90;2.40;;;;;;;;;;5039597;28;20381;-82
2022/12/06 07:08:36;;;;;;;3.45;2.38;;;;;;;;;;5037008;28;20392;-81
2022/12/06 07:11:01;;;;;;;3.72;2.40;;;;;;;;;;5037758;28;20075;-81
2022/12/06 07:13:28;;;;;;;3.90;2.40;;;;;;;;;;5041063;28;20057;-82
2022/12/06 07:15:54;;;;;;;3.97;2.83;;;;;;;;;;5033551;28;20493;-82
2022/12/06 07:18:19;;;;;;;6.30;2.25;;;;;;;;;;5039764;28;20048;-82
2022/12/06 07:20:46;;;;;;;1.83;1.63;;;;;;;;;;5040205;28;20204;-82
2022/12/06 07:23:12;;;;;;;3.22;2.33;;;;;;;;;;5037558;28;20049;-80
2022/12/06 07:25:38;;;;;;;3.42;2.15;;;;;;;;;;5031510;28;20055;-81
2022/12/06 07:28:04;;;;;;;4.38;1.48;;;;;;;;;;5067877;28;20111;-81
2022/12/06 07:30:29;;;;;;;5.20;2.55;;;;;;;;;;5042109;28;20473;-82
2022/12/06 07:32:55;;;;;;;5.15;2.20;;;;;;;;;;5036124;28;20057;-82
2022/12/06 07:35:21;;;;;;;4.72;2.60;;;;;;;;;;5038009;28;20025;-81
2022/12/06 07:37:46;;;;;;;3.03;2.05;;;;;;;;;;5037908;28;20025;-81
2022/12/06 07:40:13;;;;;;;5.07;2.72;;;;;;;;;;5038854;28;20053;-81
2022/12/06 07:45:23;;;;;;;24.70;12.95;;;;;;;;;;5040369;28;20039;-81
2022/12/06 07:47:48;;;;;;;11.05;5.85;;;;;;;;;;5037484;28;20029;-82
2022/12/06 07:50:16;;;;;;;16.75;8.98;;;;;;;;;;5040274;28;20044;-81
2022/12/06 07:52:43;;;;;;;6.35;3.15;;;;;;;;;;5035945;28;20030;-81
2022/12/06 07:55:10;;;;;;;2.40;1.92;;;;;;;;;;5037968;28;20025;-82
2022/12/06 07:57:36;;;;;;;6.88;2.95;;;;;;;;;;5036001;28;20060;-81
2022/12/06 08:00:05;;;;;;;6.25;2.85;;;;;;;;;;5039630;28;20025;-82
2022/12/06 08:02:31;;;;;;;2.63;1.98;;;;;;;;;;5038164;28;20112;-81
2022/12/06 08:04:57;;;;;;;12.00;3.03;;;;;;;;;;5048075;28;20112;-81
2022/12/06 08:07:23;;;;;;;5.88;3.13;;;;;;;;;;5043863;28;20043;-82
2022/12/06 08:09:50;;;;;;;4.05;2.33;;;;;;;;;;5036595;28;20029;-83
2022/12/06 08:12:16;;;;;;;4.93;3.10;;;;;;;;;;5040146;28;20029;-81
2022/12/06 08:14:41;;;;;;;3.65;2.88;;;;;;;;;;5040609;28;20040;-82
2022/12/06 08:17:07;;;;;;;4.60;2.10;;;;;;;;;;5043254;28;20025;-82
2022/12/06 08:19:32;;;;;;;2.65;1.58;;;;;;;;;;5040622;28;20036;-82
2022/12/06 08:21:58;;;;;;;3.13;2.05;;;;;;;;;;5038668;28;20026;-81
2022/12/06 08:24:23;;;;;;;3.67;2.55;;;;;;;;;;5040176;28;20029;-81
2022/12/06 08:26:51;;;;;;;4.60;2.53;;;;;;;;;;5041129;28;20077;-80
2022/12/06 08:29:17;;;;;;;4.60;2.53;;;;;;;;;;5044368;28;20029;-81
2022/12/06 08:31:44;;;;;;;5.38;2.47;;;;;;;;;;5039860;28;20033;-82
2022/12/06 08:34:10;;;;;;;3.50;2.22;;;;;;;;;;5035743;28;20025;-81
2022/12/06 09:58:13;;;;;;;3.40;2.20;;;;;;;;;;5102723;27;20811;-81
2022/12/06 10:00:51;;;;;;;4.35;2.95;;;;;;;;;;5087849;28;20031;-83
2022/12/06 10:03:28;;;;;;;5.25;2.20;;;;;;;;;;5083529;28;20031;-84
2022/12/06 10:06:02;;;;;;;3.70;2.42;;;;;;;;;;5082198;28;20733;-81
2022/12/06 10:08:48;;;;;;;4.45;3.22;;;;;;;;;;5088020;28;20036;-85
2022/12/06 10:11:32;;;;;;;6.93;2.63;;;;;;;;;;5086278;28;20476;-83
2022/12/06 10:14:16;;;;;;;5.68;3.08;;;;;;;;;;5085916;28;20024;-83
2022/12/06 10:17:04;;;;;;;2.50;1.80;;;;;;;;;;5085728;28;20489;-83
2022/12/06 10:20:01;;;;;;;4.50;2.97;;;;;;;;;;5086198;28;20035;-83
2022/12/06 10:22:46;;;;;;;3.78;2.35;;;;;;;;;;5086542;28;20039;-82
2022/12/06 10:25:18;;;;;;;3.72;2.28;;;;;;;;;;5084614;28;20025;-82
2022/12/06 10:28:36;;;;;;;6.10;3.80;;;;;;;;;;5085333;28;20031;-80
2022/12/06 10:31:13;;;;;;;4.30;2.90;;;;;;;;;;5060330;28;20040;-82
2022/12/06 10:34:01;;;;;;;3.70;2.20;;;;;;;;;;5085873;28;20020;-81
2022/12/06 10:36:43;;;;;;;8.35;4.18;;;;;;;;;;5086310;28;20021;-81
2022/12/06 10:39:21;;;;;;;3.20;2.03;;;;;;;;;;5086154;28;20055;-83
2022/12/06 10:42:07;;;;;;;2.58;2.20;;;;;;;;;;5083258;28;20035;-82
2022/12/06 10:44:42;;;;;;;6.15;3.17;;;;;;;;;;5081998;28;20077;-81
2022/12/06 10:47:15;;;;;;;3.33;2.63;;;;;;;;;;5086660;28;20047;-81
2022/12/06 10:50:05;;;;;;;8.55;3.50;;;;;;;;;;5086460;28;20085;-81
2022/12/06 10:52:42;;;;;;;6.45;2.97;;;;;;;;;;5085301;28;20771;-81
2022/12/06 10:55:07;;;;;;;6.15;3.30;;;;;;;;;;5086057;28;20048;-80
2022/12/06 10:57:42;;;;;;;5.50;3.33;;;;;;;;;;5076735;28;20564;-81
2022/12/06 11:00:16;;;;;;;4.25;2.65;;;;;;;;;;5071853;28;20041;-81
2022/12/06 11:02:59;;;;;;;4.07;2.47;;;;;;;;;;5070867;28;20024;-81
2022/12/06 11:05:35;;;;;;;8.63;2.20;;;;;;;;;;5071740;28;20444;-81
2022/12/06 11:08:05;;;;;;;1.88;1.50;;;;;;;;;;5070027;28;20052;-81
2022/12/06 11:10:34;;;;;;;6.68;2.08;;;;;;;;;;5069770;28;20049;-81
2022/12/06 11:13:16;;;;;;;4.20;2.38;;;;;;;;;;5071619;28;20031;-82
2022/12/06 11:15:54;;;;;;;3.83;2.10;;;;;;;;;;5070225;28;20024;-82
2022/12/06 11:18:20;;;;;;;4.13;2.00;;;;;;;;;;5072224;28;20020;-82
2022/12/06 11:20:59;;;;;;;4.15;2.42;;;;;;;;;;5071440;28;20347;-81
2022/12/06 11:23:49;;;;;;;4.03;2.17;;;;;;;;;;5070319;28;20498;-82
2022/12/06 11:26:36;;;;;;;3.42;2.03;;;;;;;;;;5070868;28;20084;-81
2022/12/06 11:29:04;;;;;;;4.40;2.42;;;;;;;;;;5068237;28;20472;-82
2022/12/06 11:31:37;;;;;;;2.70;1.85;;;;;;;;;;5071896;28;20028;-81
2022/12/06 11:34:05;;;;;;;6.15;2.42;;;;;;;;;;5071906;28;20020;-81
2022/12/06 11:36:31;;;;;;;4.55;2.78;;;;;;;;;;5070817;28;20527;-81
2022/12/06 11:38:58;;;;;;;4.40;2.20;;;;;;;;;;5072503;28;20054;-82
2022/12/06 11:41:32;;;;;;;5.72;2.88;;;;;;;;;;5071150;28;20036;-82
2022/12/06 11:43:58;;;;;;;10.88;2.50;;;;;;;;;;5071734;28;20494;-81
2022/12/06 11:46:24;;;;;;;2.72;1.65;;;;;;;;;;5072254;28;20028;-82
2022/12/06 11:48:50;;;;;;;2.17;1.55;;;;;;;;;;5071873;28;20375;-81
2022/12/06 11:51:20;;;;;;;2.83;2.03;;;;;;;;;;5072743;28;20036;-82
2022/12/06 11:54:01;;;;;;;3.05;1.80;;;;;;;;;;5072740;28;20040;-82
2022/12/06 11:56:39;;;;;;;4.25;2.42;;;;;;;;;;5069169;28;20483;-82
2022/12/06 11:59:16;;;;;;;2.42;1.70;;;;;;;;;;5072768;28;20032;-81
2022/12/06 12:01:49;;;;;;;5.28;2.88;;;;;;;;;;5102083;28;20126;-83
2022/12/06 12:04:33;;;;;;;4.78;2.58;;;;;;;;;;5073605;28;20040;-82
2022/12/06 12:07:15;;;;;;;4.38;2.90;;;;;;;;;;5074258;28;20025;-84
2022/12/06 12:09:52;;;;;;;3.95;2.60;;;;;;;;;;5070100;28;20081;-83
2022/12/06 12:12:21;;;;;;;2.08;1.48;;;;;;;;;;5072092;28;20068;-83
2022/12/06 12:14:55;;;;;;;2.80;1.65;;;;;;;;;;5074043;28;20032;-83
2022/12/06 12:17:27;;;;;;;3.28;2.30;;;;;;;;;;5071233;28;20028;-82
2022/12/06 12:20:07;;;;;;;2.97;2.13;;;;;;;;;;5069436;28;20420;-81
2022/12/06 12:22:41;;;;;;;3.47;2.17;;;;;;;;;;5071072;28;20020;-82
2022/12/06 12:25:18;;;;;;;4.32;2.38;;;;;;;;;;5072318;28;20489;-82
2022/12/06 12:28:37;;;;;;;3.58;2.50;;;;;;;;;;5070565;28;20029;-81
2022/12/06 12:31:21;;;;;;;5.13;2.95;;;;;;;;;;5059363;28;20376;-81
2022/12/06 12:33:47;;;;;;;6.22;3.13;;;;;;;;;;5069634;28;20029;-82
2022/12/06 12:36:15;;;;;;;9.23;3.42;;;;;;;;;;5071310;28;20467;-81
2022/12/06 12:38:42;;;;;;;3.63;2.70;;;;;;;;;;5074798;28;20028;-81
2022/12/06 12:41:36;;;;;;;4.10;2.70;;;;;;;;;;5070572;28;20037;-81
2022/12/06 12:44:25;;;;;;;4.18;2.75;;;;;;;;;;5070957;28;20031;-82
2022/12/06 12:46:57;;;;;;;2.13;1.90;;;;;;;;;;5069355;28;20486;-81
2022/12/06 12:49:34;;;;;;;6.65;3.63;;;;;;;;;;5069612;28;20028;-81
2022/12/06 12:52:01;;;;;;;5.03;3.10;;;;;;;;;;5070658;28;20158;-81
2022/12/06 12:54:33;;;;;;;11.30;3.15;;;;;;;;;;5068805;28;20451;-81
2022/12/06 12:57:00;;;;;;;6.32;3.63;;;;;;;;;;5070438;28;20388;-81
2022/12/06 12:59:34;;;;;;;3.90;3.15;;;;;;;;;;5071546;28;20107;-82
2022/12/06 13:02:25;;;;;;;4.53;3.28;;;;;;;;;;5070553;28;20106;-81
2022/12/06 13:05:20;;;;;;;6.50;2.97;;;;;;;;;;5071946;28;20104;-81
2022/12/06 13:07:48;;;;;;;5.15;2.83;;;;;;;;;;5067897;28;20039;-81
2022/12/06 13:10:35;;;;;;;5.75;2.70;;;;;;;;;;5070409;28;20455;-81
2022/12/06 13:13:04;;;;;;;5.65;2.42;;;;;;;;;;5069414;28;20086;-81
2022/12/06 13:15:46;;;;;;;4.53;3.10;;;;;;;;;;5066151;28;20064;-82
2022/12/06 13:18:36;;;;;;;11.73;3.83;;;;;;;;;;5069708;28;20416;-81
2022/12/06 13:21:13;;;;;;;3.50;1.80;;;;;;;;;;5065699;28;20028;-82
2022/12/06 13:23:40;;;;;;;7.15;3.63;;;;;;;;;;5069918;28;20028;-82
2022/12/06 13:26:26;;;;;;;3.72;2.47;;;;;;;;;;5070623;28;20468;-82
2022/12/06 13:29:13;;;;;;;3.63;2.47;;;;;;;;;;5069549;28;20075;-81
2022/12/06 13:31:39;;;;;;;4.57;2.53;;;;;;;;;;5067899;28;20020;-81
2022/12/06 13:34:17;;;;;;;6.05;3.28;;;;;;;;;;5071164;28;20482;-80
2022/12/06 13:36:43;;;;;;;6.93;4.47;;;;;;;;;;5068812;28;20094;-81
2022/12/06 13:39:30;;;;;;;2.75;2.25;;;;;;;;;;5071411;28;20483;-81
2022/12/06 13:44:58;;;;;;;6.63;4.40;;;;;;;;;;5070127;28;20026;-81
2022/12/06 13:47:26;;;;;;;5.00;3.67;;;;;;;;;;5068699;28;20039;-81
2022/12/06 13:49:57;;;;;;;6.63;4.00;;;;;;;;;;5070219;28;20032;-80
2022/12/06 13:52:40;;;;;;;5.22;3.15;;;;;;;;;;5065870;28;20511;-80
2022/12/06 13:55:24;;;;;;;5.28;3.88;;;;;;;;;;5070555;28;20063;-80
2022/12/06 13:58:16;;;;;;;8.50;4.35;;;;;;;;;;5068831;28;20115;-80
2022/12/06 14:00:41;;;;;;;4.75;2.65;;;;;;;;;;5069434;28;20121;-81
2022/12/06 14:03:16;;;;;;;4.43;2.78;;;;;;;;;;5070855;28;20025;-80
2022/12/06 14:05:59;;;;;;;7.47;3.88;;;;;;;;;;5069409;28;20365;-81
2022/12/06 14:08:46;;;;;;;4.15;2.70;;;;;;;;;;5070366;28;20040;-81
2022/12/06 14:11:11;;;;;;;8.23;4.78;;;;;;;;;;5070174;28;20514;-81
2022/12/06 14:13:37;;;;;;;4.20;3.80;;;;;;;;;;5070273;28;20032;-80
2022/12/06 14:16:03;;;;;;;6.75;4.38;;;;;;;;;;5070678;28;20013;-81
2022/12/06 14:18:29;;;;;;;3.70;3.25;;;;;;;;;;5069912;28;20121;-81
2022/12/06 14:20:56;;;;;;;5.28;3.67;;;;;;;;;;5066768;28;20075;-81
2022/12/06 14:23:34;;;;;;;4.80;3.30;;;;;;;;;;5070893;28;20043;-82
2022/12/06 14:26:38;;;;;;;5.53;3.40;;;;;;;;;;5069534;28;20021;-81
2022/12/06 14:29:05;;;;;;;4.68;3.45;;;;;;;;;;5027876;28;20029;-80
2022/12/06 14:31:33;;;;;;;9.55;4.53;;;;;;;;;;5014836;28;20029;-81
2022/12/06 14:33:59;;;;;;;7.05;4.82;;;;;;;;;;5052839;28;20098;-82
2022/12/06 14:36:28;;;;;;;6.80;4.40;;;;;;;;;;5074710;28;20133;-82
2022/12/06 14:39:00;;;;;;;5.50;3.60;;;;;;;;;;5074192;28;20044;-82
2022/12/06 14:44:30;;;;;;;4.45;3.63;;;;;;;;;;5074712;28;20115;-82
2022/12/06 14:46:57;;;;;;;4.55;1.85;;;;;;;;;;5073201;28;20012;-82
2022/12/06 14:52:25;;;;;;;5.43;2.58;;;;;;;;;;5074141;28;20094;-80
2022/12/06 14:55:07;;;;;;;3.28;2.22;;;;;;;;;;5069320;28;20074;-81
2022/12/06 14:57:37;;;;;;;4.40;2.92;;;;;;;;;;5073015;28;20455;-81
2022/12/06 15:00:25;;;;;;;3.67;2.85;;;;;;;;;;5070870;28;20476;-82
2022/12/06 15:03:11;;;;;;;3.53;2.17;;;;;;;;;;5072212;28;20044;-82
2022/12/06 15:05:50;;;;;;;3.55;2.03;;;;;;;;;;5072744;28;20038;-84
2022/12/06 15:08:25;;;;;;;2.75;1.60;;;;;;;;;;5074205;28;20039;-81
2022/12/06 15:12:54;;;;;;;2.00;1.77;;;;;;;;;;5072490;28;20496;-81
2022/12/06 15:14:16;;;;;;;2.47;2.20;;;;;;;;;;5071205;28;20115;-82
2022/12/06 15:16:44;;;;;;;2.47;1.73;;;;;;;;;;5071880;28;20020;-81
2022/12/06 15:19:13;;;;;;;4.32;2.90;;;;;;;;;;5073160;28;20468;-81
2022/12/06 15:21:38;;;;;;;4.45;2.92;;;;;;;;;;5072744;28;20024;-80
2022/12/06 15:24:22;;;;;;;4.32;2.47;;;;;;;;;;5071568;28;20024;-80
2022/12/06 15:26:48;;;;;;;1.90;1.73;;;;;;;;;;5072465;28;20024;-80
2022/12/06 15:29:13;;;;;;;2.80;2.03;;;;;;;;;;5073029;28;20142;-80
2022/12/06 15:31:42;;;;;;;2.03;1.90;;;;;;;;;;5073327;28;20028;-79
2022/12/06 15:34:24;;;;;;;4.30;2.95;;;;;;;;;;5072687;28;20024;-80
2022/12/06 15:36:50;;;;;;;9.20;3.08;;;;;;;;;;5070689;28;20055;-78
2022/12/06 15:39:15;;;;;;;3.00;2.40;;;;;;;;;;5073004;28;20121;-81
2022/12/06 15:41:41;;;;;;;5.10;3.63;;;;;;;;;;5072278;28;20044;-84
2022/12/06 15:44:18;;;;;;;3.10;2.38;;;;;;;;;;5072624;28;20032;-79
2022/12/06 15:46:44;;;;;;;4.97;1.92;;;;;;;;;;5071442;28;20093;-81
2022/12/06 15:49:15;;;;;;;7.47;2.38;;;;;;;;;;5072516;28;20476;-81
2022/12/06 15:51:41;;;;;;;2.85;2.03;;;;;;;;;;5074080;28;20028;-81
2022/12/06 15:54:15;;;;;;;1.65;1.38;;;;;;;;;;5072636;28;20054;-80
2022/12/06 15:56:40;;;;;;;3.88;2.38;;;;;;;;;;5072497;28;20041;-78
2022/12/06 15:59:06;;;;;;;3.38;1.88;;;;;;;;;;5070586;28;20434;-81
2022/12/06 16:01:34;;;;;;;5.15;2.28;;;;;;;;;;5072402;28;20870;-82
2022/12/06 16:04:00;;;;;;;3.20;2.22;;;;;;;;;;5070521;28;20048;-80
2022/12/06 16:06:27;;;;;;;3.63;2.38;;;;;;;;;;5071716;28;20373;-81
2022/12/06 16:08:52;;;;;;;5.45;3.40;;;;;;;;;;5072412;28;21844;-79
2022/12/06 16:11:21;;;;;;;5.28;3.30;;;;;;;;;;5072590;28;20020;-81
2022/12/06 16:13:47;;;;;;;3.90;2.63;;;;;;;;;;5072886;28;20041;-82
2022/12/06 16:16:15;;;;;;;4.20;2.50;;;;;;;;;;5072264;28;20392;-81
2022/12/06 16:18:40;;;;;;;4.90;3.38;;;;;;;;;;5070645;28;20555;-81
2022/12/06 16:21:06;;;;;;;2.60;2.40;;;;;;;;;;5070055;28;20155;-80
2022/12/06 16:26:16;;;;;;;3.83;3.00;;;;;;;;;;5071200;28;20108;-79
2022/12/06 16:28:42;;;;;;;4.05;2.70;;;;;;;;;;5071726;28;20024;-79
2022/12/06 16:31:13;;;;;;;5.18;2.80;;;;;;;;;;5072110;28;20423;-79
2022/12/06 16:33:39;;;;;;;2.63;1.55;;;;;;;;;;5073116;28;20108;-79
2022/12/06 16:36:31;;;;;;;6.20;4.47;;;;;;;;;;5072152;28;20029;-83
2022/12/06 16:39:03;;;;;;;9.25;6.03;;;;;;;;;;5063193;28;20386;-80
2022/12/06 16:41:33;;;;;;;8.20;7.07;;;;;;;;;;5066012;28;20020;-79
2022/12/06 16:44:00;;;;;;;7.20;4.07;;;;;;;;;;5069396;28;20029;-80
2022/12/06 16:46:33;;;;;;;11.32;7.05;;;;;;;;;;5068459;28;20047;-78
2022/12/06 16:49:00;;;;;;;20.98;9.48;;;;;;;;;;5101171;28;20043;-81
2022/12/06 16:51:27;;;;;;;13.50;7.53;;;;;;;;;;5067313;28;20611;-79
2022/12/06 16:53:53;;;;;;;13.88;7.78;;;;;;;;;;5063149;28;20020;-79
2022/12/06 16:56:19;;;;;;;6.18;4.97;;;;;;;;;;5068509;28;20511;-80
2022/12/06 16:58:45;;;;;;;7.25;4.47;;;;;;;;;;5071392;28;20037;-79
2022/12/06 17:01:18;;;;;;;5.75;3.50;;;;;;;;;;5070209;28;20468;-81
2022/12/06 17:03:48;;;;;;;14.48;8.07;;;;;;;;;;5070230;28;20020;-80
2022/12/06 17:06:14;;;;;;;11.20;6.93;;;;;;;;;;5070891;28;20452;-80